createdAt,value
2023-04-12T00:01:08.429Z,90.98
2023-04-12T00:03:38.094Z,91.00
2023-04-12T00:06:07.378Z,91.23
2023-04-12T00:08:37.016Z,91.35
2023-04-12T00:11:05.488Z,91.39
2023-04-12T00:13:33.582Z,91.59
2023-04-12T00:16:05.299Z,91.69
2023-04-12T00:18:34.070Z,91.51
2023-04-12T00:21:02.721Z,91.36
2023-04-12T00:23:33.812Z,91.29
2023-04-12T00:26:03.148Z,91.07
2023-04-12T00:28:36.194Z,90.96
2023-04-12T00:31:09.672Z,90.80
2023-04-12T00:33:37.934Z,90.69
2023-04-12T00:36:07.656Z,90.65
2023-04-12T00:38:35.735Z,90.55
2023-04-12T00:41:06.477Z,90.49
2023-04-12T00:43:36.281Z,90.38
2023-04-12T00:46:04.471Z,90.18
2023-04-12T00:48:33.048Z,90.26
2023-04-12T00:51:01.608Z,90.46
2023-04-12T00:53:30.111Z,90.51
2023-04-12T00:55:58.346Z,90.73
2023-04-12T00:58:28.698Z,91.26
2023-04-12T01:00:57.310Z,91.53
2023-04-12T01:03:27.773Z,91.49
2023-04-12T01:06:06.742Z,91.56
2023-04-12T01:08:41.155Z,91.53
2023-04-12T01:11:14.854Z,91.64
2023-04-12T01:13:47.081Z,92.25
2023-04-12T01:16:16.514Z,92.41
2023-04-12T01:18:50.511Z,92.31
2023-04-12T01:21:30.773Z,92.35
2023-04-12T01:24:13.582Z,92.37
2023-04-12T01:26:44.331Z,92.32
2023-04-12T01:29:16.310Z,92.37
2023-04-12T01:31:52.120Z,92.38
2023-04-12T01:34:20.708Z,92.60
2023-04-12T01:36:49.365Z,92.67
2023-04-12T01:39:20.046Z,92.63
2023-04-12T01:41:50.205Z,92.79
2023-04-12T01:44:20.260Z,92.97
2023-04-12T01:46:48.583Z,92.80
2023-04-12T01:49:17.745Z,92.70
2023-04-12T01:51:51.297Z,92.48
2023-04-12T01:54:24.080Z,92.57
2023-04-12T01:57:01.329Z,92.64
2023-04-12T01:59:39.279Z,92.76
2023-04-12T02:02:07.869Z,92.95
2023-04-12T02:04:36.940Z,93.14
2023-04-12T02:07:06.637Z,93.13
2023-04-12T02:09:38.073Z,93.02
2023-04-12T02:12:06.444Z,92.97
2023-04-12T02:14:36.082Z,93.02
2023-04-12T02:17:05.848Z,93.05
2023-04-12T02:19:34.305Z,93.00
2023-04-12T02:22:04.606Z,93.11
2023-04-12T02:24:32.765Z,93.14
2023-04-12T02:27:02.470Z,93.06
2023-04-12T02:29:31.564Z,93.19
2023-04-12T02:32:01.089Z,93.35
2023-04-12T02:34:34.327Z,93.30
2023-04-12T02:37:02.442Z,93.30
2023-04-12T02:39:34.504Z,93.30
2023-04-12T02:42:03.540Z,93.31
2023-04-12T02:44:31.855Z,93.34
2023-04-12T02:47:01.507Z,93.36
2023-04-12T02:49:29.739Z,93.41
2023-04-12T02:51:59.543Z,93.39
2023-04-12T02:54:27.623Z,93.51
2023-04-12T02:56:56.359Z,93.57
2023-04-12T02:59:25.396Z,93.61
2023-04-12T03:01:56.284Z,93.78
2023-04-12T03:04:30.138Z,93.93
2023-04-12T03:06:59.826Z,94.00
2023-04-12T03:09:29.955Z,94.14
2023-04-12T03:11:58.881Z,94.18
2023-04-12T03:14:26.967Z,94.16
2023-04-12T03:16:55.306Z,94.25
2023-04-12T03:19:25.063Z,94.26
2023-04-12T03:21:55.515Z,94.17
2023-04-12T03:24:23.644Z,94.22
2023-04-12T03:26:52.293Z,94.18
2023-04-12T03:29:20.476Z,94.28
2023-04-12T03:31:49.022Z,94.41
2023-04-12T03:34:17.561Z,94.41
2023-04-12T03:36:47.030Z,94.38
2023-04-12T03:39:15.154Z,94.44
2023-04-12T03:41:43.507Z,94.43
2023-04-12T03:44:11.686Z,94.44
2023-04-12T03:46:41.763Z,94.52
2023-04-12T03:49:10.137Z,94.57
2023-04-12T03:51:42.614Z,94.63
2023-04-12T03:54:13.768Z,94.63
2023-04-12T03:56:43.162Z,94.69
2023-04-12T03:59:12.328Z,94.68
2023-04-12T04:01:40.410Z,94.68
2023-04-12T04:04:09.233Z,94.67
2023-04-12T04:06:37.603Z,94.75
2023-04-12T04:09:05.779Z,94.81
2023-04-12T04:11:35.125Z,94.85
2023-04-12T04:14:03.919Z,94.78
2023-04-12T04:16:32.086Z,94.94
2023-04-12T04:19:00.922Z,95.17
2023-04-12T04:21:30.726Z,95.21
2023-04-12T04:24:01.193Z,95.24
2023-04-12T04:26:33.569Z,95.32
2023-04-12T04:29:03.607Z,95.30
2023-04-12T04:31:34.913Z,95.26
2023-04-12T04:34:03.715Z,95.32
2023-04-12T04:36:34.669Z,95.40
2023-04-12T04:39:05.034Z,95.46
2023-04-12T04:41:39.764Z,95.55
2023-04-12T04:44:11.657Z,95.60
2023-04-12T04:46:39.887Z,95.64
2023-04-12T04:49:08.076Z,95.69
2023-04-12T04:51:36.726Z,95.75
2023-04-12T04:54:07.415Z,95.79
2023-04-12T04:56:35.446Z,95.86
2023-04-12T04:59:04.264Z,95.84
2023-04-12T05:01:37.903Z,95.94
2023-04-12T05:04:06.212Z,95.85
2023-04-12T05:06:34.582Z,95.52
2023-04-12T05:09:02.999Z,95.17
2023-04-12T05:11:31.397Z,94.32
2023-04-12T05:13:59.528Z,93.81
2023-04-12T05:16:28.003Z,92.98
2023-04-12T05:18:57.544Z,91.86
2023-04-12T05:21:26.374Z,90.85
2023-04-12T05:23:54.716Z,90.19
2023-04-12T05:26:24.160Z,88.84
2023-04-12T05:28:52.231Z,87.23
2023-04-12T05:31:20.902Z,85.67
2023-04-12T05:33:49.823Z,83.05
2023-04-12T05:36:19.167Z,81.61
2023-04-12T05:38:47.312Z,80.15
2023-04-12T05:41:15.437Z,79.20
2023-04-12T05:43:44.704Z,76.44
2023-04-12T05:46:13.443Z,75.83
2023-04-12T05:48:41.851Z,74.51
2023-04-12T05:51:10.656Z,73.38
2023-04-12T05:53:40.027Z,72.08
2023-04-12T05:56:08.862Z,71.06
2023-04-12T05:58:36.870Z,70.83
2023-04-12T06:01:06.438Z,70.59
2023-04-12T06:03:34.626Z,69.64
2023-04-12T06:06:04.153Z,68.59
2023-04-12T06:08:33.037Z,67.23
2023-04-12T06:11:04.009Z,66.93
2023-04-12T06:13:32.373Z,65.95
2023-04-12T06:16:01.404Z,66.02
2023-04-12T06:18:30.941Z,65.34
2023-04-12T06:20:58.970Z,66.14
2023-04-12T06:23:27.039Z,64.41
2023-04-12T06:25:55.814Z,63.38
2023-04-12T06:28:25.907Z,64.03
2023-04-12T06:30:54.867Z,62.80
2023-04-12T06:33:25.467Z,62.47
2023-04-12T06:35:53.538Z,61.75
2023-04-12T06:38:21.533Z,60.59
2023-04-12T06:40:51.924Z,61.12
2023-04-12T06:43:20.507Z,59.95
2023-04-12T06:45:51.010Z,59.89
2023-04-12T06:48:20.705Z,59.48
2023-04-12T06:50:48.736Z,59.22
2023-04-12T06:53:17.038Z,57.82
2023-04-12T06:55:45.826Z,57.77
2023-04-12T06:58:13.883Z,56.97
2023-04-12T07:00:41.936Z,55.74
2023-04-12T07:03:12.237Z,55.94
2023-04-12T07:05:40.846Z,55.95
2023-04-12T07:08:09.630Z,55.60
2023-04-12T07:10:40.367Z,55.22
2023-04-12T07:13:08.517Z,55.51
2023-04-12T07:15:36.577Z,54.21
2023-04-12T07:18:05.722Z,54.38
2023-04-12T07:20:35.164Z,53.64
2023-04-12T07:23:03.408Z,53.67
2023-04-12T07:25:31.716Z,54.26
2023-04-12T07:28:00.124Z,53.79
2023-04-12T07:30:28.173Z,54.29
2023-04-12T07:33:05.311Z,54.77
2023-04-12T07:35:43.966Z,54.02
2023-04-12T07:38:12.827Z,53.62
2023-04-12T07:40:41.542Z,54.15
2023-04-12T07:43:09.944Z,53.91
2023-04-12T07:45:39.232Z,53.29
2023-04-12T07:48:08.370Z,52.06
2023-04-12T07:50:36.956Z,51.41
2023-04-12T07:53:23.191Z,50.86
2023-04-12T07:55:52.730Z,50.59
2023-04-12T07:58:25.542Z,50.52
2023-04-12T08:00:54.817Z,51.11
2023-04-12T08:03:24.652Z,51.01
2023-04-12T08:05:54.193Z,51.73
2023-04-12T08:08:24.424Z,50.19
2023-04-12T08:10:53.526Z,50.14
2023-04-12T08:13:21.689Z,50.31
2023-04-12T08:15:50.036Z,48.71
2023-04-12T08:18:18.566Z,49.45
2023-04-12T08:20:47.294Z,49.39
2023-04-12T08:23:18.001Z,48.67
2023-04-12T08:25:49.952Z,48.25
2023-04-12T08:28:19.752Z,47.39
2023-04-12T08:30:48.038Z,47.85
2023-04-12T08:33:17.534Z,47.01
2023-04-12T08:35:47.002Z,48.63
2023-04-12T08:38:16.118Z,47.28
2023-04-12T08:40:44.292Z,47.25
2023-04-12T08:43:14.864Z,47.41
2023-04-12T08:45:43.645Z,47.81
2023-04-12T08:48:12.380Z,47.07
2023-04-12T08:50:41.705Z,46.62
2023-04-12T08:53:12.874Z,45.01
2023-04-12T08:55:46.432Z,45.20
2023-04-12T08:58:16.880Z,45.17
2023-04-12T09:00:46.410Z,44.72
2023-04-12T09:03:17.831Z,44.73
2023-04-12T09:05:47.655Z,44.09
2023-04-12T09:08:17.605Z,42.89
2023-04-12T09:10:45.802Z,41.57
2023-04-12T09:13:16.519Z,42.93
2023-04-12T09:15:52.387Z,42.73
2023-04-12T09:18:20.506Z,43.32
2023-04-12T09:20:50.769Z,42.38
2023-04-12T09:23:20.536Z,43.17
2023-04-12T09:25:52.024Z,41.87
2023-04-12T09:28:27.304Z,42.16
2023-04-12T09:31:00.546Z,42.63
2023-04-12T09:33:41.803Z,42.62
2023-04-12T09:36:13.795Z,42.25
2023-04-12T09:38:43.979Z,43.18
2023-04-12T09:41:22.553Z,42.14
2023-04-12T09:43:54.838Z,42.39
2023-04-12T09:46:24.263Z,41.01
2023-04-12T09:48:53.315Z,41.31
2023-04-12T09:51:29.310Z,39.58
2023-04-12T09:54:01.118Z,39.85
2023-04-12T09:56:32.390Z,40.99
2023-04-12T09:59:07.135Z,41.74
2023-04-12T10:01:45.627Z,42.60
2023-04-12T10:04:14.615Z,42.12
2023-04-12T10:06:43.853Z,41.66
2023-04-12T10:09:17.948Z,40.76
2023-04-12T10:11:46.503Z,41.58
2023-04-12T10:14:17.042Z,40.32
2023-04-12T10:16:49.162Z,40.07
2023-04-12T10:19:18.664Z,39.73
2023-04-12T10:21:47.104Z,39.05
2023-04-12T10:24:16.993Z,39.97
2023-04-12T10:26:46.739Z,39.29
2023-04-12T10:29:25.850Z,40.90
2023-04-12T10:31:56.703Z,38.74
2023-04-12T10:34:26.889Z,40.17
2023-04-12T10:36:57.484Z,40.39
2023-04-12T10:39:40.487Z,39.10
2023-04-12T10:42:25.620Z,38.36
2023-04-12T10:44:55.040Z,39.83
2023-04-12T10:48:06.777Z,40.02
2023-04-12T10:50:37.275Z,37.89
2023-04-12T10:53:27.825Z,39.65
2023-04-12T10:55:56.035Z,40.04
2023-04-12T10:58:56.352Z,38.80
2023-04-12T11:01:25.219Z,39.63
2023-04-12T11:04:15.754Z,39.27
2023-04-12T11:07:09.781Z,39.79
2023-04-12T11:09:43.087Z,38.71
2023-04-12T11:12:16.748Z,38.86
2023-04-12T11:14:48.037Z,38.80
2023-04-12T11:17:26.572Z,38.44
2023-04-12T11:20:02.121Z,39.05
2023-04-12T11:22:34.675Z,38.26
2023-04-12T11:25:05.167Z,38.72
2023-04-12T11:27:35.432Z,37.71
2023-04-12T11:30:03.616Z,38.22
2023-04-12T11:32:34.176Z,38.27
2023-04-12T11:35:04.070Z,39.42
2023-04-12T11:37:32.300Z,38.76
2023-04-12T11:40:00.896Z,38.43
2023-04-12T11:42:30.485Z,39.21
2023-04-12T11:45:04.784Z,39.82
2023-04-12T11:47:36.057Z,39.71
2023-04-12T11:50:07.058Z,39.95
2023-04-12T11:52:35.235Z,41.04
2023-04-12T11:55:06.645Z,39.75
2023-04-12T11:57:35.638Z,40.64
2023-04-12T12:00:07.067Z,40.91
2023-04-12T12:02:43.165Z,41.34
2023-04-12T12:05:18.737Z,41.06
2023-04-12T12:07:48.274Z,41.38
2023-04-12T12:10:32.488Z,41.24
2023-04-12T12:13:11.339Z,40.87
2023-04-12T12:15:40.792Z,41.51
2023-04-12T12:18:09.997Z,41.61
2023-04-12T12:20:43.693Z,40.20
2023-04-12T12:23:13.261Z,39.85
2023-04-12T12:25:47.378Z,40.38
2023-04-12T12:28:16.469Z,41.22
2023-04-12T12:30:45.252Z,41.69
2023-04-12T12:33:14.229Z,42.14
2023-04-12T12:35:44.247Z,42.04
2023-04-12T12:38:13.847Z,42.00
2023-04-12T12:40:43.025Z,42.35
2023-04-12T12:43:19.186Z,43.15
2023-04-12T12:45:49.160Z,42.64
2023-04-12T12:48:19.534Z,42.59
2023-04-12T12:50:51.051Z,43.69
2023-04-12T12:53:22.547Z,42.51
2023-04-12T12:55:52.357Z,42.93
2023-04-12T12:58:21.905Z,42.81
2023-04-12T13:00:49.988Z,42.96
2023-04-12T13:03:18.384Z,42.83
2023-04-12T13:05:46.705Z,43.66
2023-04-12T13:08:16.282Z,43.68
2023-04-12T13:10:44.974Z,43.34
2023-04-12T13:13:13.120Z,43.52
2023-04-12T13:15:42.301Z,43.75
2023-04-12T13:18:11.761Z,44.08
2023-04-12T13:20:40.054Z,43.46
2023-04-12T13:23:08.802Z,43.75
2023-04-12T13:25:38.381Z,44.36
2023-04-12T13:28:06.891Z,44.27
2023-04-12T13:30:35.292Z,44.24
2023-04-12T13:33:05.779Z,44.45
2023-04-12T13:35:35.251Z,44.13
2023-04-12T13:38:03.410Z,44.28
2023-04-12T13:40:32.877Z,44.23
2023-04-12T13:43:05.329Z,44.46
2023-04-12T13:45:34.269Z,44.68
2023-04-12T13:48:02.636Z,45.07
2023-04-12T13:50:31.059Z,45.13
2023-04-12T13:53:04.123Z,44.83
2023-04-12T13:55:33.224Z,44.40
2023-04-12T13:58:04.299Z,43.85
2023-04-12T14:00:33.020Z,43.60
2023-04-12T14:03:03.107Z,43.70
2023-04-12T14:05:32.829Z,43.91
2023-04-12T14:08:01.138Z,44.03
2023-04-12T14:10:29.340Z,45.40
2023-04-12T14:12:57.702Z,46.47
2023-04-12T14:15:28.260Z,47.24
2023-04-12T14:17:57.200Z,48.38
2023-04-12T14:20:25.995Z,49.22
2023-04-12T14:22:54.327Z,52.65
2023-04-12T14:25:25.343Z,54.17
2023-04-12T14:27:53.635Z,54.12
2023-04-12T14:30:22.371Z,56.03
2023-04-12T14:32:53.496Z,56.22
2023-04-12T14:35:24.388Z,57.85
2023-04-12T14:37:54.305Z,60.28
2023-04-12T14:40:23.081Z,61.52
2023-04-12T14:42:51.815Z,62.41
2023-04-12T14:45:21.276Z,64.01
2023-04-12T14:47:50.455Z,65.07
2023-04-12T14:50:21.547Z,64.80
2023-04-12T14:52:51.736Z,66.10
2023-04-12T14:55:21.261Z,67.07
2023-04-12T14:57:49.627Z,67.89
2023-04-12T15:00:20.364Z,68.78
2023-04-12T15:02:49.992Z,69.45
2023-04-12T15:05:18.430Z,69.29
2023-04-12T15:07:50.432Z,70.48
2023-04-12T15:10:24.772Z,71.52
2023-04-12T15:12:54.689Z,71.38
2023-04-12T15:15:22.981Z,72.16
2023-04-12T15:17:51.876Z,71.48
2023-04-12T15:20:20.644Z,72.37
2023-04-12T15:22:52.217Z,73.37
2023-04-12T15:25:22.127Z,73.44
2023-04-12T15:27:50.787Z,74.32
2023-04-12T15:30:19.270Z,75.96
2023-04-12T15:32:50.890Z,76.40
2023-04-12T15:35:26.989Z,77.11
2023-04-12T15:37:59.917Z,77.81
2023-04-12T15:40:30.974Z,78.26
2023-04-12T15:43:04.041Z,79.09
2023-04-12T15:45:34.146Z,79.39
2023-04-12T15:48:06.552Z,79.95
2023-04-12T15:50:34.593Z,79.67
2023-04-12T15:53:05.224Z,79.69
2023-04-12T15:55:34.000Z,79.86
2023-04-12T15:58:02.468Z,80.52
2023-04-12T16:00:34.783Z,80.97
2023-04-12T16:03:05.441Z,81.21
2023-04-12T16:05:37.151Z,81.57
2023-04-12T16:08:07.912Z,82.17
2023-04-12T16:10:38.488Z,82.36
2023-04-12T16:13:09.384Z,82.71
2023-04-12T16:15:37.677Z,82.85
2023-04-12T16:18:06.545Z,83.10
2023-04-12T16:20:34.986Z,83.00
2023-04-12T16:23:05.481Z,83.14
2023-04-12T16:25:35.893Z,83.18
2023-04-12T16:28:05.548Z,83.02
2023-04-12T16:30:33.966Z,82.52
2023-04-12T16:33:04.191Z,82.26
2023-04-12T16:35:32.545Z,81.90
2023-04-12T16:38:04.455Z,81.51
2023-04-12T16:40:32.629Z,81.61
2023-04-12T16:43:02.107Z,82.12
2023-04-12T16:45:30.341Z,81.99
2023-04-12T16:47:58.586Z,81.58
2023-04-12T16:50:27.804Z,81.63
2023-04-12T16:52:56.020Z,81.69
2023-04-12T16:55:25.207Z,81.47
2023-04-12T16:57:53.786Z,81.37
2023-04-12T17:00:25.244Z,81.42
2023-04-12T17:02:56.526Z,81.38
2023-04-12T17:05:26.677Z,81.30
2023-04-12T17:07:55.525Z,81.24
2023-04-12T17:10:25.279Z,81.34
2023-04-12T17:12:54.568Z,81.44
2023-04-12T17:15:25.979Z,81.36
2023-04-12T17:18:00.786Z,81.41
2023-04-12T17:20:30.447Z,81.20
2023-04-12T17:23:00.151Z,81.51
2023-04-12T17:25:31.572Z,81.44
2023-04-12T17:28:01.701Z,81.58
2023-04-12T17:30:31.895Z,81.64
2023-04-12T17:33:01.355Z,81.66
2023-04-12T17:35:30.416Z,81.88
2023-04-12T17:37:58.438Z,82.05
2023-04-12T17:40:27.164Z,82.34
2023-04-12T17:42:55.690Z,82.53
2023-04-12T17:45:24.503Z,82.62
2023-04-12T17:47:54.636Z,82.94
2023-04-12T17:50:24.154Z,82.89
2023-04-12T17:52:52.282Z,82.86
2023-04-12T17:55:27.152Z,83.05
2023-04-12T17:58:00.301Z,83.20
2023-04-12T18:00:28.411Z,83.34
2023-04-12T18:03:01.243Z,83.38
2023-04-12T18:05:29.399Z,83.48
2023-04-12T18:07:58.269Z,83.41
2023-04-12T18:10:27.630Z,83.48
2023-04-12T18:12:56.659Z,83.47
2023-04-12T18:15:27.798Z,83.48
2023-04-12T18:17:57.140Z,83.59
2023-04-12T18:20:27.757Z,83.54
2023-04-12T18:22:57.719Z,83.50
2023-04-12T18:25:25.937Z,83.38
2023-04-12T18:27:55.888Z,83.41
2023-04-12T18:30:25.379Z,83.44
2023-04-12T18:32:55.430Z,83.25
2023-04-12T18:35:26.367Z,83.31
2023-04-12T18:37:54.374Z,83.33
2023-04-12T18:40:23.901Z,83.20
2023-04-12T18:42:52.173Z,83.15
2023-04-12T18:45:20.856Z,83.00
2023-04-12T18:47:48.900Z,82.83
2023-04-12T18:50:19.360Z,83.00
2023-04-12T18:52:48.816Z,82.88
2023-04-12T18:55:17.726Z,82.71
2023-04-12T18:57:47.722Z,82.59
2023-04-12T19:00:18.579Z,82.55
2023-04-12T19:02:47.040Z,82.29
2023-04-12T19:05:16.222Z,82.24
2023-04-12T19:07:47.075Z,82.14
2023-04-12T19:10:17.629Z,82.24
2023-04-12T19:12:45.733Z,82.19
2023-04-12T19:15:15.060Z,82.31
2023-04-12T19:17:44.624Z,82.39
2023-04-12T19:20:12.999Z,82.34
2023-04-12T19:22:41.590Z,82.60
2023-04-12T19:25:10.784Z,82.73
2023-04-12T19:27:41.095Z,82.95
2023-04-12T19:30:12.974Z,83.07
2023-04-12T19:32:42.429Z,83.27
2023-04-12T19:35:11.732Z,83.38
2023-04-12T19:37:39.867Z,83.66
2023-04-12T19:40:12.480Z,84.08
2023-04-12T19:42:42.831Z,84.44
2023-04-12T19:45:11.012Z,84.60
2023-04-12T19:47:44.659Z,84.98
2023-04-12T19:50:15.691Z,85.35
2023-04-12T19:52:44.263Z,85.49
2023-04-12T19:55:12.642Z,85.56
2023-04-12T19:57:43.204Z,85.89
2023-04-12T20:00:19.971Z,86.11
2023-04-12T20:02:52.900Z,86.19
2023-04-12T20:05:22.412Z,86.23
2023-04-12T20:07:52.589Z,86.36
2023-04-12T20:10:21.949Z,86.50
2023-04-12T20:12:52.375Z,86.34
2023-04-12T20:15:20.526Z,86.23
2023-04-12T20:17:52.292Z,86.24
2023-04-12T20:20:20.682Z,86.30
2023-04-12T20:22:51.919Z,86.26
2023-04-12T20:25:21.155Z,86.52
2023-04-12T20:27:52.514Z,86.79
2023-04-12T20:30:26.175Z,86.83
2023-04-12T20:32:55.130Z,87.06
2023-04-12T20:35:24.300Z,87.23
2023-04-12T20:37:52.927Z,87.67
2023-04-12T20:40:23.510Z,87.90
2023-04-12T20:42:51.612Z,88.34
2023-04-12T20:45:21.681Z,88.58
2023-04-12T20:47:52.140Z,88.75
2023-04-12T20:50:22.491Z,89.18
2023-04-12T20:52:52.403Z,89.63
2023-04-12T20:55:22.766Z,89.97
2023-04-12T20:57:51.216Z,90.32
2023-04-12T21:00:23.570Z,90.64
2023-04-12T21:02:54.640Z,90.94
2023-04-12T21:05:22.941Z,91.31
2023-04-12T21:07:51.242Z,91.59
2023-04-12T21:10:19.426Z,91.87
2023-04-12T21:12:48.140Z,92.05
2023-04-12T21:15:18.388Z,92.32
2023-04-12T21:17:46.672Z,92.56
2023-04-12T21:20:19.941Z,92.84
2023-04-12T21:22:48.259Z,93.01
2023-04-12T21:25:17.247Z,93.20
2023-04-12T21:27:47.801Z,93.31
2023-04-12T21:30:16.356Z,93.45
2023-04-12T21:32:48.185Z,93.66
2023-04-12T21:35:18.401Z,93.76
2023-04-12T21:37:46.924Z,93.93
2023-04-12T21:40:18.631Z,94.07
2023-04-12T21:42:48.788Z,94.20
2023-04-12T21:45:17.046Z,94.31
2023-04-12T21:47:45.546Z,94.38
2023-04-12T21:50:14.672Z,94.49
2023-04-12T21:52:45.674Z,94.59
2023-04-12T21:55:13.927Z,94.69
2023-04-12T21:57:42.127Z,94.80
2023-04-12T22:00:12.602Z,94.83
2023-04-12T22:02:40.859Z,94.88
2023-04-12T22:05:09.848Z,94.89
2023-04-12T22:07:41.253Z,94.84
2023-04-12T22:10:14.130Z,94.89
2023-04-12T22:12:50.406Z,94.95
2023-04-12T22:15:18.720Z,95.08
2023-04-12T22:17:47.374Z,95.22
2023-04-12T22:20:15.724Z,95.34
2023-04-12T22:22:44.341Z,95.42
2023-04-12T22:25:16.066Z,95.42
2023-04-12T22:27:46.446Z,95.48
2023-04-12T22:30:15.935Z,95.49
2023-04-12T22:32:46.028Z,95.59
2023-04-12T22:35:14.491Z,95.68
2023-04-12T22:37:43.243Z,95.74
2023-04-12T22:40:13.781Z,95.82
2023-04-12T22:42:46.920Z,95.85
2023-04-12T22:45:15.901Z,95.80
2023-04-12T22:47:44.218Z,95.82
2023-04-12T22:50:29.482Z,95.86
2023-04-12T22:52:58.616Z,95.84
2023-04-12T22:55:28.092Z,95.87
2023-04-12T22:58:01.119Z,95.89
2023-04-12T23:00:35.164Z,95.91
2023-04-12T23:03:10.720Z,95.97
2023-04-12T23:05:44.883Z,96.00
2023-04-12T23:08:15.790Z,96.08
2023-04-12T23:10:46.407Z,96.12
2023-04-12T23:13:19.775Z,96.13
2023-04-12T23:15:50.106Z,96.14
2023-04-12T23:18:18.983Z,96.21
2023-04-12T23:20:49.380Z,96.22
2023-04-12T23:23:18.377Z,96.21
2023-04-12T23:25:46.912Z,96.17
2023-04-12T23:28:19.586Z,96.17
2023-04-12T23:30:52.195Z,96.15
2023-04-12T23:33:22.692Z,96.08
2023-04-12T23:35:53.282Z,96.08
2023-04-12T23:38:26.177Z,96.06
2023-04-12T23:40:54.855Z,96.18
2023-04-12T23:43:27.190Z,96.18
2023-04-12T23:45:59.271Z,96.24
2023-04-12T23:48:28.382Z,96.28
2023-04-12T23:50:57.278Z,96.24
2023-04-12T23:53:25.769Z,96.28
2023-04-12T23:55:56.772Z,96.26
2023-04-12T23:58:28.083Z,96.25
